KLFK/LFK METAR and TAF weather

Enter ICAO airport designator
Station Type Date Time Source
KLFK METAR 2020/01/26 03:53 UTC NOAA

KLFK 260353Z AUTO 13005KT 10SM -RA OVC044 13/08 A3007 RMK AO2 RAB41 SLP182 P0000 T01280078


Station Type Date Time Source
KLFK Decoded METAR 2020/01/26 03:53 UTC NOAA

LUFKIN ANGELINA COUNTY AIRPORT , TX, United States (KLFK) 31-14N 94-45W 88M
Jan 25, 2020 - 10:53 PM EST / 2020.01.26 0353 UTC
Wind: from the SE (130 degrees) at 6 MPH (5 KT):0
Visibility: 10 mile(s):0
Sky conditions: overcast
Weather: light rain
Precipitation last hour: A trace
Temperature: 55.0 F (12.8 C)
Dew Point: 46.0 F (7.8 C)
Relative Humidity: 71%
Pressure (altimeter): 30.07 in. Hg (1018 hPa)
ob: KLFK 260353Z AUTO 13005KT 10SM -RA OVC044 13/08 A3007 RMK AO2 RAB41 SLP182 P0000 T01280078
cycle: 4

Station Type Date Time Source
KLFK TAF 2020/01/25 18:48 UTC NOAA

TAF KLFK 251745Z 2518/2618 14007KT P6SM SKC
FM251900 15009KT P6SM FEW120 BKN200
FM260100 14005KT P6SM VCSH BKN050 OVC070
FM260600 14007KT 3SM -SHRA BR OVC010
FM260900 13008KT 2SM -SHRA BR OVC007
FM261500 13006KT 1/2SM FG OVC001

Example: see airport list